Bethlehem, Mississippi
Current Conditions -  °F | °C
As of 4:15 AM on Friday 31 Oct 2014 (Local Time) from KUOX Reporting Station
Clear Clear  
Wind Chill: 45°   Ceiling: Unl
Heat Index: 45°   Visibility: 10mi
Dew Point: 45°   Wind: 0mph
Humidity: 100%   Direction: NA
Pressure: 29.99"   Gusts: NA
Location:  34.5725°N, 89.3417°W
Report Text: KUOX 310915Z AUTO 00000KT 10SM CLR 07/07 A2999 RMK AO2 PWINO PNO
Loading
Personal Weather Stations






























Interactive Weather Map
Tropical Storm Tracking
New forecast layout! Learn more

10-Day Weather Forecast

Advertisements
Track Severe Weather on mobile